Time;durP1;ratioP1;P1;durP2;ratioP2;P2;SDS_P1;SDS_P2;PMS_P1;PMS_P2;Temp;Humidity;BMP_temperature;BMP_pressure;BME280_temperature;BME280_humidity;BME280_pressure;Samples;Min_cycle;Max_cycle;Signal;HPM_P1;HPM_P2
2023/04/08 00:00:51;;;;;;;50.33;29.37;;;;;;;5.91;85.92;94698.56;5113266;28;20196;-83
2023/04/08 00:03:18;;;;;;;50.23;28.80;;;;;;;5.92;85.30;94702.72;5113217;28;20196;-82
2023/04/08 00:05:45;;;;;;;46.50;27.43;;;;;;;5.87;84.98;94703.28;5112638;28;20192;-82
2023/04/08 00:08:12;;;;;;;48.50;28.30;;;;;;;5.86;84.84;94696.53;5108441;28;20579;-84
2023/04/08 00:10:40;;;;;;;46.97;27.93;;;;;;;5.81;83.74;94683.38;5091505;28;20193;-83
2023/04/08 00:13:07;;;;;;;44.73;27.33;;;;;;;6.01;83.55;94701.59;5098489;28;20203;-82
2023/04/08 00:15:34;;;;;;;48.10;27.93;;;;;;;6.04;83.84;94706.38;5112536;28;20196;-83
2023/04/08 00:18:01;;;;;;;46.93;27.13;;;;;;;6.06;83.66;94702.63;5112072;28;20188;-84
2023/04/08 00:20:28;;;;;;;42.70;26.40;;;;;;;6.00;84.14;94702.59;5109642;28;20211;-83
2023/04/08 00:22:54;;;;;;;50.73;26.13;;;;;;;5.93;84.68;94694.00;5104393;28;20679;-83
2023/04/08 00:25:21;;;;;;;46.27;25.70;;;;;;;5.92;84.32;94697.56;5111672;28;20196;-82
2023/04/08 00:27:50;;;;;;;41.50;26.37;;;;;;;5.88;84.14;94691.22;5111729;28;20196;-83
2023/04/08 00:30:16;;;;;;;38.60;24.73;;;;;;;5.84;84.43;94695.91;5111925;28;20196;-83
2023/04/08 00:32:44;;;;;;;41.57;26.30;;;;;;;5.82;84.78;94691.94;5112200;28;20207;-83
2023/04/08 00:35:11;;;;;;;46.93;26.87;;;;;;;5.80;84.61;94688.75;5111759;28;20192;-82
2023/04/08 00:37:38;;;;;;;42.87;25.60;;;;;;;5.78;83.61;94678.59;5111828;28;20580;-83
2023/04/08 00:40:06;;;;;;;46.67;28.50;;;;;;;5.86;84.14;94699.13;5111147;28;20601;-83
2023/04/08 00:42:33;;;;;;;53.00;31.93;;;;;;;5.76;84.30;94685.72;5110032;28;20201;-81
2023/04/08 00:45:01;;;;;;;59.00;31.93;;;;;;;5.77;84.09;94686.53;5110967;28;20188;-83
2023/04/08 00:47:28;;;;;;;49.93;29.30;;;;;;;5.70;85.39;94683.91;5109708;28;20192;-85
2023/04/08 00:49:55;;;;;;;47.10;27.90;;;;;;;5.84;85.79;94705.41;5110511;28;20184;-84
2023/04/08 00:52:22;;;;;;;41.60;25.50;;;;;;;5.89;85.86;94706.47;5110874;28;20707;-83
2023/04/08 00:54:48;;;;;;;44.60;25.73;;;;;;;5.92;85.95;94711.25;5111520;28;20203;-83
2023/04/08 00:57:16;;;;;;;44.53;24.97;;;;;;;5.95;86.15;94705.72;5111406;28;20191;-83
2023/04/08 00:59:42;;;;;;;44.17;26.77;;;;;;;5.92;86.11;94707.88;5111480;28;20216;-83
2023/04/08 01:02:15;;;;;;;46.80;27.17;;;;;;;5.87;85.98;94705.88;5111573;28;20572;-82
2023/04/08 01:04:53;;;;;;;46.03;27.70;;;;;;;5.88;86.90;94707.47;5111761;28;20184;-83
2023/04/08 01:07:24;;;;;;;48.27;28.43;;;;;;;5.87;87.35;94703.28;5091676;28;20216;-84
2023/04/08 01:09:55;;;;;;;46.53;28.20;;;;;;;5.86;86.75;94708.66;5097879;28;20624;-84
2023/04/08 01:12:27;;;;;;;49.53;28.17;;;;;;;5.88;86.62;94704.91;5111857;28;20260;-84
2023/04/08 01:15:00;;;;;;;48.50;28.57;;;;;;;5.92;86.58;94713.03;5111550;28;20672;-84
2023/04/08 01:17:30;;;;;;;47.27;28.83;;;;;;;5.81;87.00;94703.22;5111810;28;20188;-85
2023/04/08 01:20:00;;;;;;;49.03;29.73;;;;;;;5.83;86.79;94717.50;5111564;28;20232;-85
2023/04/08 01:22:34;;;;;;;48.50;28.40;;;;;;;5.72;87.59;94698.19;5111333;28;20192;-86
2023/04/08 01:25:08;;;;;;;54.40;29.77;;;;;;;5.74;87.59;94703.19;5112040;28;20195;-85
2023/04/08 01:27:37;;;;;;;52.23;29.87;;;;;;;5.68;88.22;94691.81;5115815;28;20173;-85
2023/04/08 01:30:06;;;;;;;42.77;27.40;;;;;;;5.78;88.17;94708.75;5115502;28;20198;-86
2023/04/08 01:32:35;;;;;;;51.50;28.50;;;;;;;5.75;87.54;94699.59;5115640;28;20184;-84
2023/04/08 01:35:03;;;;;;;51.73;29.10;;;;;;;5.67;87.67;94692.81;5115215;28;20688;-85
2023/04/08 01:37:31;;;;;;;46.20;28.50;;;;;;;5.73;88.25;94704.16;5115016;28;20260;-85
2023/04/08 01:40:00;;;;;;;49.30;28.10;;;;;;;5.72;88.24;94703.34;5115433;28;20212;-85
2023/04/08 01:42:29;;;;;;;48.17;27.97;;;;;;;5.64;88.26;94690.59;5115514;28;20204;-85
2023/04/08 01:44:59;;;;;;;45.97;28.30;;;;;;;5.78;88.86;94709.53;5115479;28;20195;-84
2023/04/08 01:47:27;;;;;;;46.97;28.20;;;;;;;5.79;88.10;94705.19;5107119;28;20604;-82
2023/04/08 01:49:54;;;;;;;45.40;28.37;;;;;;;5.75;88.86;94707.34;5115150;28;20196;-83
2023/04/08 01:52:23;;;;;;;48.43;29.30;;;;;;;5.67;88.57;94702.31;5114959;28;20569;-83
2023/04/08 01:54:50;;;;;;;47.73;28.60;;;;;;;5.72;88.50;94716.25;5114902;28;20655;-83
2023/04/08 01:57:22;;;;;;;48.23;29.17;;;;;;;5.63;88.79;94691.56;5114531;28;20203;-84
2023/04/08 01:59:52;;;;;;;44.83;28.73;;;;;;;5.73;89.02;94717.84;5114775;28;20219;-84
2023/04/08 02:02:24;;;;;;;49.93;28.97;;;;;;;5.69;89.52;94723.53;5114732;28;20200;-82
2023/04/08 02:04:52;;;;;;;50.00;29.47;;;;;;;5.68;89.28;94720.16;5114993;28;20196;-81
2023/04/08 02:07:19;;;;;;;48.13;29.50;;;;;;;5.66;89.21;94729.06;5114517;28;20203;-84
2023/04/08 02:09:45;;;;;;;48.87;28.70;;;;;;;5.65;89.24;94733.44;5114767;28;20192;-85
2023/04/08 02:12:13;;;;;;;48.10;28.60;;;;;;;5.61;89.89;94724.50;5114502;28;20718;-84
2023/04/08 02:14:39;;;;;;;45.43;27.97;;;;;;;5.63;89.93;94740.56;5113922;28;20632;-85
2023/04/08 02:17:11;;;;;;;42.07;26.13;;;;;;;5.62;89.59;94735.59;5113356;28;20199;-84
2023/04/08 02:19:44;;;;;;;39.40;24.73;;;;;;;5.60;89.51;94735.78;5114253;28;20743;-84
2023/04/08 02:22:17;;;;;;;38.57;24.70;;;;;;;5.66;89.60;94737.59;5114146;28;20219;-84
2023/04/08 02:24:46;;;;;;;40.57;24.80;;;;;;;5.61;89.43;94746.88;5114710;28;20214;-85
2023/04/08 02:27:13;;;;;;;38.43;24.67;;;;;;;5.65;89.98;94735.22;5114471;28;20223;-84
2023/04/08 02:29:41;;;;;;;41.17;25.83;;;;;;;5.67;89.67;94736.63;5114439;28;20241;-85
2023/04/08 02:32:11;;;;;;;39.40;24.77;;;;;;;5.62;89.67;94725.28;5114201;28;20196;-85
2023/04/08 02:34:41;;;;;;;39.60;25.10;;;;;;;5.70;89.09;94740.63;5114476;28;20227;-85
2023/04/08 02:37:08;;;;;;;40.63;25.30;;;;;;;5.69;88.82;94733.84;5093756;28;20271;-84
2023/04/08 02:39:35;;;;;;;41.47;25.60;;;;;;;5.70;88.69;94738.84;5094135;28;20250;-85
2023/04/08 02:42:02;;;;;;;42.60;25.30;;;;;;;5.65;89.20;94732.66;5110012;28;20199;-85
2023/04/08 02:44:29;;;;;;;38.33;24.30;;;;;;;5.67;88.85;94738.41;5113931;28;20200;-85
2023/04/08 02:46:56;;;;;;;37.63;23.77;;;;;;;5.59;88.58;94723.09;5114234;28;20196;-84
2023/04/08 02:49:22;;;;;;;39.53;23.50;;;;;;;5.66;88.25;94745.34;5113423;28;20219;-84
2023/04/08 02:51:51;;;;;;;37.00;23.33;;;;;;;5.61;88.97;94721.91;5113902;28;20203;-85
2023/04/08 02:54:17;;;;;;;37.43;24.27;;;;;;;5.51;88.87;94721.41;5114055;28;20641;-84
2023/04/08 02:56:44;;;;;;;39.70;24.07;;;;;;;5.53;89.67;94731.56;5114078;28;20195;-84
2023/04/08 02:59:11;;;;;;;39.50;23.67;;;;;;;5.44;89.30;94719.75;5115667;28;20194;-83
2023/04/08 03:01:38;;;;;;;45.10;25.77;;;;;;;5.46;90.10;94728.09;5119281;28;20222;-83
2023/04/08 03:04:05;;;;;;;44.87;27.60;;;;;;;5.54;89.92;94744.25;5115240;28;20200;-83
2023/04/08 03:06:32;;;;;;;48.97;27.93;;;;;;;5.34;91.14;94742.47;5113814;28;20195;-83
2023/04/08 03:09:00;;;;;;;46.23;26.73;;;;;;;5.17;91.89;94738.53;5113882;28;20209;-83
2023/04/08 03:11:27;;;;;;;43.20;26.90;;;;;;;5.02;92.26;94731.63;5113583;28;20674;-83
2023/04/08 03:13:54;;;;;;;46.00;28.50;;;;;;;4.82;93.16;94725.47;5113662;28;20540;-83
2023/04/08 03:16:21;;;;;;;51.43;27.67;;;;;;;4.77;94.05;94716.69;5113825;28;20214;-84
2023/04/08 03:18:49;;;;;;;47.50;27.60;;;;;;;4.95;94.86;94728.22;5092710;28;20198;-84
2023/04/08 03:21:16;;;;;;;49.27;28.03;;;;;;;4.94;95.07;94733.53;5092709;28;20268;-83
2023/04/08 03:23:42;;;;;;;45.27;27.13;;;;;;;5.01;94.71;94731.81;5093382;28;20215;-84
2023/04/08 03:26:11;;;;;;;43.90;26.63;;;;;;;4.93;94.73;94719.88;5101907;28;20196;-82
2023/04/08 03:28:38;;;;;;;46.50;27.73;;;;;;;5.10;94.03;94731.53;5114346;28;20199;-82
2023/04/08 03:31:05;;;;;;;53.80;27.50;;;;;;;5.20;94.09;94738.16;5114582;28;20667;-82
2023/04/08 03:33:32;;;;;;;44.43;26.73;;;;;;;5.26;93.11;94734.84;5093496;28;20264;-83
2023/04/08 03:35:58;;;;;;;44.73;26.37;;;;;;;5.29;92.86;94730.13;5105883;28;20192;-83
2023/04/08 03:38:25;;;;;;;43.63;25.97;;;;;;;5.34;92.90;94743.25;5113205;28;20199;-84
2023/04/08 03:40:52;;;;;;;45.77;25.80;;;;;;;5.35;92.41;94741.47;5112289;28;20215;-83
2023/04/08 03:43:20;;;;;;;42.47;25.97;;;;;;;5.37;92.21;94736.97;5111578;28;20192;-83
2023/04/08 03:45:47;;;;;;;47.63;27.33;;;;;;;5.43;92.38;94741.34;5112099;28;20196;-83
2023/04/08 03:48:14;;;;;;;48.93;27.40;;;;;;;5.38;92.92;94734.19;5111784;28;20231;-84
2023/04/08 03:50:41;;;;;;;44.77;26.27;;;;;;;5.38;92.01;94734.19;5112737;28;20192;-83
2023/04/08 03:53:10;;;;;;;46.93;26.57;;;;;;;5.28;92.37;94727.75;5112950;28;20207;-83
2023/04/08 03:55:36;;;;;;;43.70;27.37;;;;;;;5.41;91.80;94738.16;5113074;28;20323;-84
2023/04/08 03:58:03;;;;;;;44.90;27.73;;;;;;;5.45;91.90;94739.41;5112259;28;20203;-83
2023/04/08 04:00:32;;;;;;;50.30;28.20;;;;;;;5.43;92.45;94741.34;5112482;28;20221;-84
2023/04/08 04:02:59;;;;;;;44.27;27.40;;;;;;;5.46;92.31;94735.84;5113027;28;20196;-84
2023/04/08 04:05:26;;;;;;;45.60;28.13;;;;;;;5.55;90.64;94732.97;5114678;28;20617;-83
2023/04/08 04:07:52;;;;;;;51.93;33.67;;;;;;;5.37;91.03;94717.13;5114458;28;20195;-84
2023/04/08 04:10:19;;;;;;;48.67;31.30;;;;;;;5.39;91.45;94720.34;5112870;28;20199;-84
2023/04/08 04:12:46;;;;;;;51.70;30.87;;;;;;;5.37;91.86;94737.72;5112365;28;20196;-84
2023/04/08 04:15:13;;;;;;;55.27;32.33;;;;;;;5.35;92.40;94739.72;5113864;28;20202;-82
2023/04/08 04:17:41;;;;;;;57.47;33.10;;;;;;;5.12;92.55;94724.41;5114748;28;20536;-83
2023/04/08 04:20:09;;;;;;;57.40;33.87;;;;;;;5.07;93.49;94742.22;5114901;28;20231;-84
2023/04/08 04:22:36;;;;;;;58.63;36.10;;;;;;;5.05;94.85;94754.44;5112029;28;20196;-82
2023/04/08 04:25:03;;;;;;;61.37;33.00;;;;;;;5.08;94.96;94746.34;5117173;28;20196;-82
2023/04/08 04:27:30;;;;;;;62.40;33.90;;;;;;;5.12;94.10;94742.44;5114421;28;20195;-83
2023/04/08 04:29:56;;;;;;;58.33;31.50;;;;;;;5.23;93.84;94751.47;5112663;28;20198;-83
2023/04/08 04:32:23;;;;;;;59.67;30.03;;;;;;;5.31;93.41;94751.34;5111916;28;20203;-82
2023/04/08 04:34:51;;;;;;;47.13;26.17;;;;;;;5.26;93.29;94747.72;5112596;28;20200;-83
2023/04/08 04:37:18;;;;;;;42.27;26.80;;;;;;;5.31;93.59;94755.72;5112311;28;20282;-84
2023/04/08 04:39:45;;;;;;;50.57;26.93;;;;;;;5.36;93.14;94751.63;5106571;28;20199;-84
2023/04/08 04:42:12;;;;;;;52.97;27.60;;;;;;;5.37;93.50;94745.47;5105508;28;20593;-83
2023/04/08 04:44:39;;;;;;;46.83;26.83;;;;;;;5.40;93.34;94747.69;5110713;28;20203;-84
2023/04/08 04:47:05;;;;;;;43.63;26.67;;;;;;;5.41;92.73;94748.47;5111175;28;20658;-82
2023/04/08 04:49:32;;;;;;;40.97;26.00;;;;;;;5.42;93.01;94744.94;5110835;28;20224;-83
2023/04/08 04:52:00;;;;;;;42.93;26.93;;;;;;;5.51;92.58;94746.41;5111224;28;20246;-83
2023/04/08 04:54:27;;;;;;;46.93;27.10;;;;;;;5.38;92.96;94723.06;5111121;28;20218;-83
2023/04/08 04:56:55;;;;;;;43.27;27.17;;;;;;;5.49;92.86;94741.44;5111301;28;20196;-83
2023/04/08 04:59:21;;;;;;;46.87;25.80;;;;;;;5.61;93.13;94760.56;5111883;28;20199;-84
2023/04/08 05:01:56;;;;;;;42.47;26.93;;;;;;;5.54;92.94;94756.34;5115262;28;20219;-83
2023/04/08 05:04:23;;;;;;;44.23;26.73;;;;;;;5.58;93.07;94760.13;5115498;28;20255;-83
2023/04/08 05:06:50;;;;;;;42.67;26.70;;;;;;;5.55;92.63;94765.66;5115095;28;20202;-84
2023/04/08 05:09:18;;;;;;;48.07;27.03;;;;;;;5.59;92.45;94759.97;5114687;28;20259;-83
2023/04/08 05:11:45;;;;;;;42.67;25.67;;;;;;;5.61;91.90;94755.41;5113033;28;20199;-84
2023/04/08 05:14:12;;;;;;;44.60;27.27;;;;;;;5.61;92.04;94762.34;5114219;28;20188;-82
2023/04/08 05:16:39;;;;;;;45.43;27.23;;;;;;;5.69;92.45;94769.94;5115602;28;20191;-82
2023/04/08 05:19:10;;;;;;;48.23;27.00;;;;;;;5.59;91.62;94741.94;5115326;28;20199;-84
2023/04/08 05:21:37;;;;;;;50.77;27.20;;;;;;;5.66;92.00;94765.97;5115940;28;20206;-83
2023/04/08 05:24:04;;;;;;;55.13;30.07;;;;;;;5.41;91.98;94743.31;5115561;28;20537;-84
2023/04/08 05:26:33;;;;;;;48.50;29.00;;;;;;;5.51;92.84;94754.13;5115301;28;20280;-84
2023/04/08 05:29:00;;;;;;;52.90;29.57;;;;;;;5.60;93.58;94756.38;5114718;28;20195;-83
2023/04/08 05:31:27;;;;;;;49.13;28.30;;;;;;;5.70;92.49;94763.81;5115162;27;20269;-84
2023/04/08 05:33:53;;;;;;;52.17;27.67;;;;;;;5.79;92.50;94761.91;5114912;28;20657;-83
2023/04/08 05:36:20;;;;;;;47.30;26.80;;;;;;;5.82;91.89;94761.53;5113314;28;20196;-83
2023/04/08 05:38:47;;;;;;;48.07;28.10;;;;;;;5.69;91.06;94739.00;5114630;28;20203;-83
2023/04/08 05:41:14;;;;;;;48.03;27.20;;;;;;;5.70;91.32;94764.63;5114707;28;20223;-83
2023/04/08 05:43:42;;;;;;;53.40;29.53;;;;;;;5.52;92.42;94758.28;5114018;28;20201;-83
2023/04/08 05:46:10;;;;;;;58.93;29.13;;;;;;;5.31;94.18;94758.31;5114900;28;20197;-84
2023/04/08 05:48:37;;;;;;;57.70;30.47;;;;;;;5.37;94.79;94760.94;5114271;28;20246;-83
2023/04/08 05:51:04;;;;;;;49.40;28.30;;;;;;;5.51;94.85;94765.22;5114584;28;20209;-83
2023/04/08 05:53:31;;;;;;;49.80;27.73;;;;;;;5.63;93.86;94760.38;5114211;28;20191;-83
2023/04/08 05:55:58;;;;;;;45.50;27.50;;;;;;;5.71;93.30;94755.88;5114484;28;20199;-84
2023/04/08 05:58:25;;;;;;;45.07;27.47;;;;;;;5.55;92.46;94701.22;5114369;28;20199;-83
2023/04/08 06:00:54;;;;;;;48.90;27.07;;;;;;;5.98;92.38;94756.13;5114436;28;20422;-83
2023/04/08 06:03:21;;;;;;;46.13;27.13;;;;;;;6.06;92.13;94753.44;5114885;28;20202;-83
2023/04/08 06:05:48;;;;;;;45.60;26.23;;;;;;;6.11;91.77;94745.94;5117415;28;20594;-88
2023/04/08 06:08:15;;;;;;;48.27;26.43;;;;;;;6.20;91.24;94766.22;5114472;28;20654;-80
2023/04/08 06:10:48;;;;;;;41.53;26.53;;;;;;;6.31;90.89;94758.94;5107587;28;20220;-80
2023/04/08 06:13:15;;;;;;;41.13;25.77;;;;;;;6.36;90.13;94752.25;5113679;28;20199;-81
2023/04/08 06:15:42;;;;;;;45.57;25.87;;;;;;;6.41;89.34;94744.72;5112764;28;20207;-82
2023/04/08 06:18:10;;;;;;;47.63;25.57;;;;;;;6.54;88.55;94751.75;5112654;28;20209;-81
2023/04/08 06:20:37;;;;;;;40.90;25.40;;;;;;;6.67;87.94;94750.03;5113606;28;20200;-82
2023/04/08 06:23:04;;;;;;;44.37;27.57;;;;;;;6.78;87.27;94759.81;5114023;28;20203;-82
2023/04/08 06:25:31;;;;;;;45.10;27.13;;;;;;;6.88;86.61;94764.63;5114069;28;20651;-81
2023/04/08 06:27:58;;;;;;;43.27;26.20;;;;;;;6.92;85.97;94754.72;5113136;28;20200;-81
2023/04/08 06:30:25;;;;;;;48.10;26.00;;;;;;;7.00;86.49;94762.28;5112960;28;20188;-80
2023/04/08 06:32:51;;;;;;;40.17;25.73;;;;;;;7.06;86.52;94764.91;5113185;28;20200;-84
2023/04/08 06:35:19;;;;;;;43.23;25.43;;;;;;;7.17;85.90;94758.38;5111723;28;20195;-83
2023/04/08 06:37:46;;;;;;;44.67;26.27;;;;;;;7.28;84.89;94768.94;5108133;28;20622;-83
2023/04/08 06:40:13;;;;;;;42.13;25.40;;;;;;;7.33;84.86;94773.56;5111623;28;20674;-82
2023/04/08 06:42:42;;;;;;;41.13;24.70;;;;;;;7.41;84.31;94766.41;5111903;28;20208;-83
2023/04/08 06:45:10;;;;;;;44.43;25.77;;;;;;;7.42;84.37;94773.16;5110268;28;20231;-83
2023/04/08 06:47:37;;;;;;;36.20;24.67;;;;;;;7.47;83.60;94774.38;5112657;28;20273;-83
2023/04/08 06:50:04;;;;;;;33.70;22.63;;;;;;;7.52;83.31;94770.19;5112701;28;20626;-82
2023/04/08 06:52:32;;;;;;;46.53;23.53;;;;;;;7.61;82.72;94768.22;5113178;28;20188;-83
2023/04/08 06:54:59;;;;;;;47.50;24.57;;;;;;;7.71;82.73;94766.03;5111154;28;20195;-83
2023/04/08 06:57:26;;;;;;;40.53;23.50;;;;;;;7.70;82.58;94767.06;5112425;28;20200;-82
2023/04/08 06:59:53;;;;;;;38.03;23.10;;;;;;;7.72;83.21;94772.81;5113395;28;20196;-83
2023/04/08 07:02:20;;;;;;;33.60;20.20;;;;;;;7.80;82.90;94773.44;5112543;28;20233;-82
2023/04/08 07:04:47;;;;;;;25.37;16.70;;;;;;;7.77;82.48;94773.00;5112900;28;20188;-82
2023/04/08 07:07:14;;;;;;;23.30;15.83;;;;;;;7.68;81.61;94743.16;5112952;28;20200;-82
2023/04/08 07:09:44;;;;;;;24.10;16.00;;;;;;;7.84;81.82;94781.59;5112890;27;20200;-84
2023/04/08 07:12:12;;;;;;;23.00;16.03;;;;;;;7.78;81.72;94756.50;5113064;28;20183;-82
2023/04/08 07:14:39;;;;;;;26.23;16.57;;;;;;;7.97;81.16;94782.38;5112450;28;20199;-82
2023/04/08 07:17:06;;;;;;;22.73;15.70;;;;;;;8.00;81.50;94781.19;5112816;28;20648;-84
2023/04/08 07:19:33;;;;;;;24.40;16.13;;;;;;;8.10;80.85;94784.19;5112710;28;20196;-83
2023/04/08 07:22:00;;;;;;;23.53;16.37;;;;;;;8.13;80.62;94785.59;5112616;28;20216;-83
2023/04/08 07:24:27;;;;;;;26.07;15.80;;;;;;;8.20;81.26;94788.94;5112218;28;20188;-82
2023/04/08 07:26:55;;;;;;;27.63;16.60;;;;;;;8.18;80.32;94789.16;5107020;28;20198;-83
2023/04/08 07:29:22;;;;;;;29.17;17.53;;;;;;;8.14;80.64;94777.59;5112032;28;20736;-84
2023/04/08 07:31:50;;;;;;;25.03;16.93;;;;;;;8.21;80.69;94785.38;5112578;28;20199;-83
2023/04/08 07:34:17;;;;;;;24.20;16.73;;;;;;;8.24;81.04;94780.59;5112662;28;20279;-83
2023/04/08 07:36:44;;;;;;;25.13;17.47;;;;;;;8.39;80.59;94795.97;5110631;28;20211;-84
2023/04/08 07:39:11;;;;;;;25.20;16.83;;;;;;;8.35;80.33;94798.16;5112197;28;20196;-83
2023/04/08 07:41:38;;;;;;;25.97;16.40;;;;;;;8.30;80.25;94790.19;5112130;28;20223;-83
2023/04/08 07:44:07;;;;;;;27.57;17.20;;;;;;;8.26;80.48;94770.84;5111960;28;20192;-82
2023/04/08 07:46:37;;;;;;;30.53;18.37;;;;;;;8.43;80.07;94792.75;5109954;28;20261;-83
2023/04/08 07:49:03;;;;;;;30.70;17.23;;;;;;;8.64;80.76;94801.28;5111620;28;20231;-82
2023/04/08 07:51:31;;;;;;;29.60;18.20;;;;;;;8.70;80.45;94803.88;5111855;28;20195;-82
2023/04/08 07:53:57;;;;;;;24.53;16.37;;;;;;;8.85;80.44;94804.47;5111828;28;20924;-82
2023/04/08 07:56:25;;;;;;;26.00;17.17;;;;;;;8.84;79.83;94797.66;5111641;28;20207;-82
2023/04/08 07:58:53;;;;;;;25.80;17.30;;;;;;;8.87;79.90;94801.66;5110654;28;20215;-83
2023/04/08 08:01:22;;;;;;;24.87;17.20;;;;;;;8.81;79.83;94813.63;5109070;28;20220;-82
2023/04/08 08:03:49;;;;;;;23.60;16.40;;;;;;;8.83;80.13;94816.78;5110737;28;20659;-83
2023/04/08 08:06:16;;;;;;;25.57;15.90;;;;;;;8.92;80.20;94823.34;5110911;28;20654;-82
2023/04/08 08:08:43;;;;;;;23.13;16.40;;;;;;;8.97;80.16;94820.19;5111784;28;20192;-83
2023/04/08 08:11:18;;;;;;;22.77;16.10;;;;;;;9.00;80.61;94822.34;5111657;28;20199;-84
2023/04/08 08:13:45;;;;;;;26.20;16.67;;;;;;;9.06;80.74;94824.13;5112123;28;20248;-84
2023/04/08 08:16:12;;;;;;;25.10;16.47;;;;;;;9.16;80.58;94808.13;5111771;28;20185;-84
2023/04/08 08:18:41;;;;;;;24.97;16.37;;;;;;;9.17;80.40;94804.56;5111602;28;20858;-87
2023/04/08 08:21:08;;;;;;;22.63;15.73;;;;;;;9.15;80.12;94802.16;5111770;28;20203;-83
2023/04/08 08:23:36;;;;;;;24.17;15.43;;;;;;;9.27;79.90;94818.66;5111471;28;20731;-83
2023/04/08 08:26:05;;;;;;;27.13;16.47;;;;;;;9.40;80.24;94825.59;5111390;28;20548;-83
2023/04/08 08:28:32;;;;;;;23.17;16.27;;;;;;;9.48;79.45;94820.97;5112024;28;20227;-82
2023/04/08 08:30:59;;;;;;;27.90;17.00;;;;;;;9.51;79.03;94811.97;5110105;28;20203;-80
2023/04/08 08:33:27;;;;;;;27.13;16.67;;;;;;;9.62;78.70;94824.28;5105430;27;20192;-80
2023/04/08 08:35:56;;;;;;;27.93;17.67;;;;;;;9.65;79.72;94821.28;5104802;28;20288;-80
2023/04/08 08:38:23;;;;;;;26.43;16.70;;;;;;;9.63;80.39;94811.13;5109488;28;20261;-80
2023/04/08 08:40:55;;;;;;;29.03;18.17;;;;;;;9.91;79.68;94822.94;5109457;28;20198;-80
2023/04/08 08:43:21;;;;;;;27.63;17.77;;;;;;;9.97;78.39;94822.91;5106778;28;20196;-79
2023/04/08 08:45:48;;;;;;;28.70;17.83;;;;;;;10.07;78.31;94817.25;5109853;28;20192;-79
2023/04/08 08:48:16;;;;;;;26.87;16.63;;;;;;;10.14;77.57;94815.41;5109928;28;20231;-79
2023/04/08 08:50:43;;;;;;;25.80;16.77;;;;;;;10.11;78.02;94813.22;5110434;28;20621;-79
2023/04/08 08:53:11;;;;;;;24.77;17.30;;;;;;;10.22;77.89;94821.16;5109664;28;20192;-79
2023/04/08 08:55:39;;;;;;;25.97;17.13;;;;;;;10.23;77.25;94822.75;5109433;28;20662;-79
2023/04/08 08:58:06;;;;;;;27.97;17.77;;;;;;;10.29;77.72;94822.91;5110389;28;20192;-80
2023/04/08 09:00:33;;;;;;;26.37;17.30;;;;;;;10.38;76.71;94829.44;5111672;28;20227;-80
2023/04/08 09:03:17;;;;;;;29.13;17.73;;;;;;;10.40;76.45;94822.22;5111714;28;20223;-80
2023/04/08 09:05:54;;;;;;;26.50;17.20;;;;;;;10.27;75.82;94828.31;5110849;28;20235;-81
2023/04/08 09:08:27;;;;;;;25.43;17.67;;;;;;;10.37;75.26;94835.63;5110614;28;20201;-80
2023/04/08 09:10:54;;;;;;;27.90;17.30;;;;;;;10.35;75.97;94812.47;5112810;28;20198;-82
2023/04/08 09:13:22;;;;;;;26.23;17.87;;;;;;;10.48;76.08;94804.56;5108757;28;20682;-82
2023/04/08 09:16:03;;;;;;;29.67;17.83;;;;;;;10.79;75.65;94827.09;5111383;28;20188;-80
2023/04/08 09:18:31;;;;;;;24.43;17.03;;;;;;;11.03;75.21;94828.03;5107411;28;20622;-82
2023/04/08 09:20:59;;;;;;;34.50;16.93;;;;;;;11.19;74.97;94824.88;5108699;28;20504;-81
2023/04/08 09:23:38;;;;;;;30.53;17.27;;;;;;;11.39;74.51;94817.63;5110530;28;20235;-81
2023/04/08 09:26:08;;;;;;;31.10;18.53;;;;;;;11.67;72.63;94830.88;5110497;28;20257;-80
2023/04/08 09:28:35;;;;;;;25.60;17.47;;;;;;;11.79;72.71;94825.75;5111194;28;20188;-81
2023/04/08 09:31:09;;;;;;;34.03;20.17;;;;;;;11.70;71.50;94817.47;5110415;28;20211;-82
2023/04/08 09:33:36;;;;;;;38.43;21.90;;;;;;;11.77;72.22;94826.00;5111005;28;20317;-80
2023/04/08 09:36:03;;;;;;;27.77;18.10;;;;;;;11.89;72.20;94805.16;5109351;28;20839;-83
2023/04/08 09:38:30;;;;;;;27.50;18.33;;;;;;;12.20;72.11;94820.56;5110381;28;20192;-85
2023/04/08 09:40:58;;;;;;;31.30;18.80;;;;;;;12.48;71.59;94825.13;5110430;28;20203;-79
2023/04/08 09:43:26;;;;;;;31.20;16.87;;;;;;;12.79;69.32;94818.78;5110629;28;20231;-79
2023/04/08 09:45:53;;;;;;;29.10;16.47;;;;;;;12.95;69.05;94812.91;5109886;28;20665;-80
2023/04/08 09:48:27;;;;;;;26.50;16.60;;;;;;;13.15;68.12;94810.75;5113583;28;20227;-79
2023/04/08 09:50:57;;;;;;;25.60;16.60;;;;;;;13.10;67.42;94781.16;5113288;28;20201;-80
2023/04/08 09:53:34;;;;;;;27.93;16.37;;;;;;;13.48;67.21;94812.72;5113344;28;20196;-80
2023/04/08 09:56:08;;;;;;;19.77;14.23;;;;;;;13.76;65.36;94814.56;5112931;27;20196;-79
2023/04/08 09:58:41;;;;;;;20.00;13.63;;;;;;;14.03;65.32;94808.53;5113172;28;20204;-79
2023/04/08 10:01:13;;;;;;;25.27;15.63;;;;;;;14.34;63.29;94804.66;5110373;28;20199;-77
2023/04/08 10:03:45;;;;;;;20.43;14.37;;;;;;;14.29;62.37;94808.94;5113332;28;20220;-80
2023/04/08 10:06:12;;;;;;;22.40;14.40;;;;;;;14.20;63.76;94801.50;5097778;28;20587;-80
2023/04/08 10:08:40;;;;;;;23.97;15.13;;;;;;;14.03;63.86;94802.50;5114281;28;20192;-80
2023/04/08 10:11:08;;;;;;;23.87;15.13;;;;;;;14.17;63.48;94799.34;5112360;28;20207;-81
2023/04/08 10:13:36;;;;;;;21.33;14.20;;;;;;;14.31;63.62;94804.28;5113370;28;20590;-80
2023/04/08 10:16:20;;;;;;;24.93;15.17;;;;;;;14.45;64.40;94797.75;5111466;28;20575;-80
2023/04/08 10:18:48;;;;;;;21.60;14.53;;;;;;;14.72;63.18;94796.06;5106630;28;20894;-79
2023/04/08 10:21:35;;;;;;;22.63;15.63;;;;;;;14.82;61.03;94796.22;5112469;28;20638;-78
2023/04/08 10:24:05;;;;;;;21.27;13.90;;;;;;;14.81;61.04;94802.47;5112837;28;20247;-79
2023/04/08 10:26:39;;;;;;;22.30;14.43;;;;;;;14.95;61.87;94793.25;5109834;28;20208;-82
2023/04/08 10:29:31;;;;;;;21.13;14.50;;;;;;;15.33;63.18;94795.06;5111914;28;20276;-78
2023/04/08 10:31:58;;;;;;;23.50;15.03;;;;;;;15.46;60.63;94799.94;5107862;28;20732;-78
2023/04/08 10:34:26;;;;;;;24.87;14.73;;;;;;;15.35;60.23;94790.38;5112109;28;20196;-79
2023/04/08 10:36:55;;;;;;;21.60;14.93;;;;;;;15.35;59.96;94785.16;5110317;28;20192;-80
2023/04/08 10:39:22;;;;;;;22.40;14.67;;;;;;;15.02;60.09;94778.16;5111542;28;20709;-80
2023/04/08 10:41:51;;;;;;;22.07;14.73;;;;;;;14.62;60.75;94777.59;5108610;28;20298;-79
2023/04/08 10:44:18;;;;;;;21.40;15.33;;;;;;;14.17;62.20;94775.84;5110761;28;20257;-80
2023/04/08 10:46:45;;;;;;;21.37;14.70;;;;;;;13.94;63.34;94762.13;5110185;28;20201;-80
2023/04/08 10:49:12;;;;;;;23.63;15.03;;;;;;;13.94;64.88;94762.91;5110907;28;20796;-78
2023/04/08 10:51:40;;;;;;;23.30;14.13;;;;;;;13.97;63.79;94767.66;5111816;28;20195;-80
2023/04/08 10:54:08;;;;;;;19.73;13.90;;;;;;;14.00;64.04;94761.97;5111288;28;20204;-78
2023/04/08 10:56:36;;;;;;;18.77;13.43;;;;;;;13.84;63.05;94756.72;5110955;28;20658;-79
2023/04/08 10:59:05;;;;;;;21.17;14.23;;;;;;;14.10;64.18;94761.34;5111114;28;20200;-81
2023/04/08 11:01:39;;;;;;;20.93;13.93;;;;;;;14.61;65.13;94768.97;5111468;28;20823;-80
2023/04/08 11:04:14;;;;;;;19.63;14.30;;;;;;;14.76;62.80;94756.09;5113756;28;20797;-80
2023/04/08 11:06:44;;;;;;;17.03;12.43;;;;;;;14.76;60.54;94753.50;5111271;28;20698;-81
2023/04/08 11:09:11;;;;;;;19.87;13.37;;;;;;;14.68;61.24;94751.28;5108706;28;20267;-80
2023/04/08 11:11:38;;;;;;;19.80;13.60;;;;;;;14.56;61.15;94749.78;5111043;28;20208;-79
2023/04/08 11:14:06;;;;;;;18.87;13.30;;;;;;;14.56;62.75;94747.97;5110896;28;20275;-78
2023/04/08 11:16:34;;;;;;;21.97;13.93;;;;;;;14.55;61.22;94741.16;5110865;28;20196;-79
2023/04/08 11:19:03;;;;;;;20.43;14.07;;;;;;;14.57;61.12;94740.94;5109962;28;20228;-78
2023/04/08 11:21:31;;;;;;;18.60;13.53;;;;;;;14.52;62.29;94743.44;5110746;28;20643;-79
2023/04/08 11:23:58;;;;;;;19.07;13.80;;;;;;;14.63;60.68;94732.88;5112006;28;20212;-82
2023/04/08 11:26:27;;;;;;;21.33;13.23;;;;;;;15.11;59.51;94737.47;5104612;28;20217;-83
2023/04/08 11:28:56;;;;;;;17.67;12.80;;;;;;;15.47;57.90;94725.56;5094456;28;20246;-80